Time;durP1;ratioP1;P1;durP2;ratioP2;P2;SDS_P1;SDS_P2;PMS_P1;PMS_P2;Temp;Humidity;BMP_temperature;BMP_pressure;BME280_temperature;BME280_humidity;BME280_pressure;Samples;Min_cycle;Max_cycle;Signal;HPM_P1;HPM_P2
2021/12/22 00:00:31;;;;;;;31.00;13.10;;;;;;;;;;2106163;28;20147;-45
2021/12/22 00:01:34;;;;;;;29.47;12.70;;;;;;;;;;2097986;28;20052;-44
2021/12/22 00:02:36;;;;;;;26.42;11.80;;;;;;;;;;2098615;28;20306;-45
2021/12/22 00:03:39;;;;;;;30.83;12.20;;;;;;;;;;2104378;28;20285;-44
2021/12/22 00:04:44;;;;;;;30.05;11.93;;;;;;;;;;2106148;28;20048;-44
2021/12/22 00:05:48;;;;;;;39.25;14.82;;;;;;;;;;2104570;28;20285;-45
2021/12/22 00:06:49;;;;;;;24.33;10.05;;;;;;;;;;2104884;28;20281;-45
2021/12/22 00:07:50;;;;;;;27.50;11.15;;;;;;;;;;2106251;28;20273;-44
2021/12/22 00:08:51;;;;;;;24.48;10.50;;;;;;;;;;2104124;28;20408;-46
2021/12/22 00:09:52;;;;;;;23.58;11.35;;;;;;;;;;2112439;28;20508;-45
2021/12/22 00:10:53;;;;;;;22.58;11.63;;;;;;;;;;2114805;28;20047;-45
2021/12/22 00:11:54;;;;;;;26.77;10.97;;;;;;;;;;2109780;28;20044;-44
2021/12/22 00:12:58;;;;;;;27.40;12.10;;;;;;;;;;2100311;28;20474;-46
2021/12/22 00:13:59;;;;;;;32.35;14.23;;;;;;;;;;2097906;28;20284;-45
2021/12/22 00:15:00;;;;;;;28.40;13.05;;;;;;;;;;2101530;28;20127;-45
2021/12/22 00:16:01;;;;;;;22.83;11.27;;;;;;;;;;2105854;28;20491;-45
2021/12/22 00:17:02;;;;;;;33.70;13.95;;;;;;;;;;2106173;28;20048;-45
2021/12/22 00:18:03;;;;;;;35.45;14.18;;;;;;;;;;2103997;28;20126;-45
2021/12/22 00:19:04;;;;;;;29.58;13.75;;;;;;;;;;2106184;28;20122;-46
2021/12/22 00:20:06;;;;;;;28.50;12.27;;;;;;;;;;2106303;28;20493;-45
2021/12/22 00:21:07;;;;;;;;;;;;;;;;;;2104439;28;20043;-48
2021/12/22 00:22:09;;;;;;;25.63;10.10;;;;;;;;;;2106333;28;19970;-48
2021/12/22 00:23:09;;;;;;;28.65;11.43;;;;;;;;;;2106322;28;20177;-48
2021/12/22 00:24:11;;;;;;;28.40;10.10;;;;;;;;;;2103629;28;20405;-48
2021/12/22 00:25:12;;;;;;;36.72;16.88;;;;;;;;;;2106099;28;20070;-48
2021/12/22 00:26:14;;;;;;;50.25;20.23;;;;;;;;;;2105490;28;20400;-49
2021/12/22 00:27:15;;;;;;;43.83;18.88;;;;;;;;;;2105504;28;20588;-50
2021/12/22 00:28:17;;;;;;;44.77;19.30;;;;;;;;;;2097814;28;20730;-50
2021/12/22 00:29:17;;;;;;;42.38;21.33;;;;;;;;;;2098463;28;20620;-49
2021/12/22 00:30:19;;;;;;;60.73;25.03;;;;;;;;;;2104189;28;20059;-48
2021/12/22 00:31:21;;;;;;;63.60;27.85;;;;;;;;;;2106210;28;20135;-49
2021/12/22 00:32:24;;;;;;;55.40;24.35;;;;;;;;;;2100242;28;20522;-49
2021/12/22 00:33:27;;;;;;;55.88;23.80;;;;;;;;;;2100627;28;20346;-49
2021/12/22 00:34:28;;;;;;;75.45;27.23;;;;;;;;;;2097717;28;20368;-48
2021/12/22 00:35:38;;;;;;;61.53;25.35;;;;;;;;;;2099960;28;20387;-49
2021/12/22 00:36:38;;;;;;;61.88;26.10;;;;;;;;;;2100964;28;20134;-49
2021/12/22 00:37:40;;;;;;;50.47;22.65;;;;;;;;;;2097999;28;20672;-48
2021/12/22 00:38:41;;;;;;;67.38;27.58;;;;;;;;;;2101445;28;20170;-48
2021/12/22 00:39:43;;;;;;;81.77;29.30;;;;;;;;;;2105404;28;20543;-48
2021/12/22 00:40:45;;;;;;;84.88;30.52;;;;;;;;;;2106073;28;20048;-48
2021/12/22 00:41:46;;;;;;;78.00;29.80;;;;;;;;;;2106768;28;20359;-49
2021/12/22 00:42:47;;;;;;;79.93;30.15;;;;;;;;;;2098493;28;20051;-48
2021/12/22 00:43:50;;;;;;;76.43;27.23;;;;;;;;;;2097674;28;20040;-48
2021/12/22 00:44:53;;;;;;;86.65;29.23;;;;;;;;;;2105340;28;20084;-50
2021/12/22 00:45:56;;;;;;;75.78;28.00;;;;;;;;;;2097674;28;20277;-50
2021/12/22 00:46:57;;;;;;;74.75;25.63;;;;;;;;;;2098651;28;20689;-49
2021/12/22 00:47:58;;;;;;;85.05;28.58;;;;;;;;;;2102017;28;20291;-49
2021/12/22 00:48:59;;;;;;;80.80;29.80;;;;;;;;;;2106107;28;20119;-48
2021/12/22 00:50:00;;;;;;;63.90;24.70;;;;;;;;;;2105606;28;20371;-48
2021/12/22 00:51:01;;;;;;;73.80;26.85;;;;;;;;;;2104014;28;20434;-49
2021/12/22 00:52:03;;;;;;;87.55;31.08;;;;;;;;;;2105966;28;20044;-51
2021/12/22 00:53:05;;;;;;;80.63;27.40;;;;;;;;;;2105140;28;20046;-49
2021/12/22 00:54:06;;;;;;;;;;;;;;;;;;2105011;28;20101;-48
2021/12/22 00:55:08;;;;;;;75.35;26.08;;;;;;;;;;2105945;28;19931;-48
2021/12/22 00:56:09;;;;;;;74.32;25.85;;;;;;;;;;2104113;28;20765;-50
2021/12/22 00:57:11;;;;;;;73.55;23.50;;;;;;;;;;2100667;28;20143;-51
2021/12/22 00:58:12;;;;;;;69.00;26.10;;;;;;;;;;2097853;28;20044;-48
2021/12/22 00:59:13;;;;;;;82.65;27.67;;;;;;;;;;2098930;28;20376;-48
2021/12/22 01:00:15;;;;;;;72.47;28.23;;;;;;;;;;2111677;28;20480;-48
2021/12/22 01:01:16;;;;;;;55.20;22.50;;;;;;;;;;2114309;28;20043;-49
2021/12/22 01:02:18;;;;;;;66.13;24.73;;;;;;;;;;2109380;28;20054;-49
2021/12/22 01:03:20;;;;;;;56.92;22.20;;;;;;;;;;2105751;28;20416;-45
2021/12/22 01:04:21;;;;;;;38.25;16.17;;;;;;;;;;2105888;28;20276;-45
2021/12/22 01:05:22;;;;;;;48.78;18.90;;;;;;;;;;2102588;28;20044;-46
2021/12/22 01:06:23;;;;;;;50.90;19.15;;;;;;;;;;2105589;28;20044;-45
2021/12/22 01:07:25;;;;;;;49.20;19.92;;;;;;;;;;2106032;28;20066;-44
2021/12/22 01:08:46;;;;;;;47.05;19.13;;;;;;;;;;2105500;28;20097;-46
2021/12/22 01:09:47;;;;;;;47.00;18.30;;;;;;;;;;2097718;28;20364;-44
2021/12/22 01:10:48;;;;;;;52.45;19.60;;;;;;;;;;2097971;28;20123;-44
2021/12/22 01:11:50;;;;;;;47.50;18.57;;;;;;;;;;2103197;28;20413;-44
2021/12/22 01:12:52;;;;;;;49.42;16.80;;;;;;;;;;2105945;28;20104;-44
2021/12/22 01:13:53;;;;;;;53.08;18.83;;;;;;;;;;2104868;28;20043;-44
2021/12/22 01:14:58;;;;;;;50.67;19.67;;;;;;;;;;2108544;28;20283;-45
2021/12/22 01:16:00;;;;;;;45.72;18.33;;;;;;;;;;2114427;28;20280;-44
2021/12/22 01:17:02;;;;;;;53.83;18.67;;;;;;;;;;2110682;28;20473;-44
2021/12/22 01:18:10;;;;;;;45.60;18.67;;;;;;;;;;2111679;28;20500;-44
2021/12/22 01:19:15;;;;;;;52.00;18.42;;;;;;;;;;2114316;28;20275;-44
2021/12/22 01:20:22;;;;;;;37.90;15.77;;;;;;;;;;2109596;28;20287;-44
2021/12/22 01:21:29;;;;;;;43.70;18.17;;;;;;;;;;2105840;28;20430;-44
2021/12/22 01:22:36;;;;;;;49.42;16.75;;;;;;;;;;2105785;28;20272;-45
2021/12/22 01:23:48;;;;;;;45.33;16.92;;;;;;;;;;2104136;28;20829;-44
2021/12/22 01:24:59;;;;;;;48.63;18.60;;;;;;;;;;2105949;28;20355;-44
2021/12/22 01:26:00;;;;;;;56.83;18.40;;;;;;;;;;2103819;28;20123;-44
2021/12/22 01:27:08;;;;;;;42.80;16.73;;;;;;;;;;2099798;28;20277;-44
2021/12/22 01:28:09;;;;;;;46.83;18.20;;;;;;;;;;2097596;28;20086;-44
2021/12/22 01:29:11;;;;;;;55.45;18.48;;;;;;;;;;2099672;28;20364;-45
2021/12/22 01:30:13;;;;;;;43.10;14.20;;;;;;;;;;2104715;28;20052;-45
2021/12/22 01:31:16;;;;;;;52.65;20.67;;;;;;;;;;2105604;28;20619;-45
2021/12/22 01:32:17;;;;;;;49.42;20.05;;;;;;;;;;2103365;28;20288;-45
2021/12/22 01:33:19;;;;;;;61.75;23.20;;;;;;;;;;2097407;28;20295;-45
2021/12/22 01:34:19;;;;;;;68.47;24.70;;;;;;;;;;2097598;28;20062;-44
2021/12/22 01:35:22;;;;;;;61.50;22.43;;;;;;;;;;2104454;28;20396;-44
2021/12/22 01:36:23;;;;;;;51.47;20.13;;;;;;;;;;2114198;28;20048;-45
2021/12/22 01:37:24;;;;;;;54.90;19.90;;;;;;;;;;2113682;28;20791;-43
2021/12/22 01:38:25;;;;;;;48.88;20.27;;;;;;;;;;2107028;28;20096;-45
2021/12/22 01:39:26;;;;;;;47.23;18.07;;;;;;;;;;2105962;28;20431;-45
2021/12/22 01:40:27;;;;;;;53.92;20.75;;;;;;;;;;2105193;28;20043;-45
2021/12/22 01:41:29;;;;;;;58.22;19.42;;;;;;;;;;2101400;28;20661;-45
2021/12/22 01:42:30;;;;;;;55.13;20.88;;;;;;;;;;2097290;28;20127;-44
2021/12/22 01:43:31;;;;;;;58.15;22.13;;;;;;;;;;2100413;28;20123;-44
2021/12/22 01:44:45;;;;;;;51.67;20.23;;;;;;;;;;2108562;28;20048;-45
2021/12/22 01:46:07;;;;;;;57.85;19.52;;;;;;;;;;2114209;28;20047;-44
2021/12/22 01:49:58;;;;;;;36.65;14.38;;;;;;;;;;2100965;28;20766;-45
2021/12/22 01:51:03;;;;;;;41.65;16.70;;;;;;;;;;2097321;28;20376;-44
2021/12/22 01:52:05;;;;;;;45.47;16.50;;;;;;;;;;2097668;28;20135;-44
2021/12/22 01:53:06;;;;;;;;;;;;;;;;;;2104136;28;20284;-45
2021/12/22 01:54:07;;;;;;;43.90;13.98;;;;;;;;;;2105738;28;19927;-45
2021/12/22 01:55:14;;;;;;;39.10;14.63;;;;;;;;;;2104494;28;20056;-44
2021/12/22 01:56:21;;;;;;;37.28;15.18;;;;;;;;;;2108433;28;20291;-45
2021/12/22 01:57:22;;;;;;;41.67;15.93;;;;;;;;;;2114190;28;20351;-44
2021/12/22 01:58:31;;;;;;;33.80;14.15;;;;;;;;;;2108694;28;20364;-44
2021/12/22 01:59:32;;;;;;;39.78;13.48;;;;;;;;;;2106696;28;20134;-45
2021/12/22 02:00:33;;;;;;;32.28;12.05;;;;;;;;;;2107089;28;20352;-44
2021/12/22 02:01:35;;;;;;;32.08;11.73;;;;;;;;;;2108059;28;20126;-44
2021/12/22 02:02:36;;;;;;;31.70;11.50;;;;;;;;;;2099615;28;20141;-44
2021/12/22 02:03:37;;;;;;;28.23;10.03;;;;;;;;;;2098882;28;20486;-44
2021/12/22 02:04:40;;;;;;;23.83;10.50;;;;;;;;;;2103213;28;20047;-44
2021/12/22 02:05:43;;;;;;;31.25;11.20;;;;;;;;;;2106925;28;20075;-44
2021/12/22 02:06:45;;;;;;;27.88;12.35;;;;;;;;;;2107046;28;20286;-45
2021/12/22 02:07:56;;;;;;;23.70;10.07;;;;;;;;;;2103508;28;20052;-44
2021/12/22 02:08:58;;;;;;;24.38;10.07;;;;;;;;;;2107158;28;20283;-45
2021/12/22 02:11:20;;;;;;;25.70;10.50;;;;;;;;;;2106843;28;20280;-44
2021/12/22 02:12:21;;;;;;;26.98;11.82;;;;;;;;;;2107093;28;20284;-44
2021/12/22 02:13:28;;;;;;;20.83;8.65;;;;;;;;;;2106399;28;20663;-44
2021/12/22 02:14:29;;;;;;;22.83;10.05;;;;;;;;;;2115635;28;20192;-44
2021/12/22 02:15:33;;;;;;;24.00;9.48;;;;;;;;;;2114541;28;20744;-43
2021/12/22 02:16:38;;;;;;;22.60;10.07;;;;;;;;;;2105744;28;20440;-45
2021/12/22 02:17:40;;;;;;;20.02;9.70;;;;;;;;;;2098659;28;20364;-44
2021/12/22 02:18:44;;;;;;;25.40;10.15;;;;;;;;;;2099309;28;20609;-44
2021/12/22 02:19:46;;;;;;;23.80;9.95;;;;;;;;;;2101552;28;20415;-44
2021/12/22 02:20:48;;;;;;;25.23;10.25;;;;;;;;;;2098559;28;20360;-44
2021/12/22 02:21:54;;;;;;;20.35;9.38;;;;;;;;;;2101096;28;20337;-45
2021/12/22 02:22:55;;;;;;;21.60;8.82;;;;;;;;;;2105559;28;20092;-44
2021/12/22 02:23:56;;;;;;;20.17;8.90;;;;;;;;;;2106937;28;20371;-44
2021/12/22 02:25:01;;;;;;;24.67;8.60;;;;;;;;;;2104817;28;20131;-50
2021/12/22 02:26:09;;;;;;;23.45;9.70;;;;;;;;;;2105923;28;20304;-48
2021/12/22 02:27:19;;;;;;;18.80;8.43;;;;;;;;;;2106827;28;20367;-49
2021/12/22 02:28:26;;;;;;;22.77;8.48;;;;;;;;;;2104122;28;20284;-48
2021/12/22 02:29:35;;;;;;;19.75;8.00;;;;;;;;;;2106953;28;20280;-48
2021/12/22 02:30:36;;;;;;;19.50;8.30;;;;;;;;;;2104829;28;20310;-49
2021/12/22 02:31:43;;;;;;;22.20;8.65;;;;;;;;;;2111896;28;20288;-49
2021/12/22 02:33:10;;;;;;;24.05;8.82;;;;;;;;;;2097864;28;20055;-48
2021/12/22 02:34:14;;;;;;;18.92;8.02;;;;;;;;;;2104013;28;20399;-49
2021/12/22 02:35:17;;;;;;;19.75;8.20;;;;;;;;;;2106900;28;20825;-48
2021/12/22 02:36:24;;;;;;;20.92;8.68;;;;;;;;;;2106254;28;20322;-48
2021/12/22 02:37:25;;;;;;;16.15;7.30;;;;;;;;;;2105567;28;20361;-48
2021/12/22 02:38:26;;;;;;;17.20;7.38;;;;;;;;;;2106876;28;20292;-48
2021/12/22 02:39:27;;;;;;;16.40;7.72;;;;;;;;;;2104977;28;20139;-49
2021/12/22 02:40:28;;;;;;;19.03;8.17;;;;;;;;;;2107585;28;20040;-48
2021/12/22 02:41:30;;;;;;;25.15;9.43;;;;;;;;;;2106891;28;20127;-48
2021/12/22 02:42:33;;;;;;;19.95;8.57;;;;;;;;;;2105519;28;20044;-48
2021/12/22 02:43:34;;;;;;;19.02;8.00;;;;;;;;;;2105535;28;20044;-47
2021/12/22 02:44:35;;;;;;;20.52;8.25;;;;;;;;;;2106955;28;20359;-48
2021/12/22 02:45:37;;;;;;;20.40;8.07;;;;;;;;;;2104605;28;20041;-49
2021/12/22 02:46:38;;;;;;;18.63;7.05;;;;;;;;;;2113345;28;20407;-49
2021/12/22 02:47:39;;;;;;;20.98;8.57;;;;;;;;;;2115237;28;20488;-48
2021/12/22 02:48:40;;;;;;;20.03;8.47;;;;;;;;;;2107843;28;20055;-50
2021/12/22 02:49:41;;;;;;;18.15;8.80;;;;;;;;;;2114461;28;20044;-48
2021/12/22 02:50:43;;;;;;;21.03;7.43;;;;;;;;;;2115362;28;20091;-48
2021/12/22 02:51:44;;;;;;;;;;;;;;;;;;2107305;28;20139;-48
2021/12/22 02:52:55;;;;;;;17.55;7.10;;;;;;;;;;2106626;28;19943;-48
2021/12/22 02:54:04;;;;;;;22.30;8.02;;;;;;;;;;2106897;28;20042;-48
2021/12/22 02:55:06;;;;;;;22.65;7.97;;;;;;;;;;2104264;28;20303;-48
2021/12/22 02:56:18;;;;;;;22.08;8.60;;;;;;;;;;2106717;28;20352;-48
2021/12/22 02:57:26;;;;;;;18.48;7.47;;;;;;;;;;2106213;28;20549;-48
2021/12/22 02:58:39;;;;;;;19.27;7.50;;;;;;;;;;2100464;28;20139;-48
2021/12/22 02:59:52;;;;;;;20.10;7.10;;;;;;;;;;2098531;28;20334;-48
2021/12/22 03:01:07;;;;;;;22.38;7.63;;;;;;;;;;2103967;28;20285;-49
2021/12/22 03:02:27;;;;;;;20.45;7.35;;;;;;;;;;2106700;28;20814;-48
2021/12/22 03:03:44;;;;;;;18.48;7.90;;;;;;;;;;2105503;28;20289;-48
2021/12/22 03:04:52;;;;;;;19.98;7.70;;;;;;;;;;2098562;28;20281;-48
2021/12/22 03:05:55;;;;;;;19.17;8.30;;;;;;;;;;2097973;28;20792;-48
2021/12/22 03:07:00;;;;;;;19.92;8.35;;;;;;;;;;2104664;28;20365;-48
2021/12/22 03:08:01;;;;;;;21.50;8.95;;;;;;;;;;2106553;28;20360;-49
2021/12/22 03:09:14;;;;;;;17.50;9.02;;;;;;;;;;2105739;28;20368;-48
2021/12/22 03:10:17;;;;;;;21.58;9.85;;;;;;;;;;2101274;28;20044;-49
2021/12/22 03:11:19;;;;;;;18.38;8.30;;;;;;;;;;2097778;28;20426;-48
2021/12/22 03:12:22;;;;;;;17.60;8.10;;;;;;;;;;2100656;28;20364;-48
2021/12/22 03:13:24;;;;;;;17.77;7.82;;;;;;;;;;2105626;28;20048;-49
2021/12/22 03:14:25;;;;;;;18.60;7.57;;;;;;;;;;2106736;28;20292;-48
2021/12/22 03:15:26;;;;;;;21.60;8.45;;;;;;;;;;2107359;28;20444;-48
2021/12/22 03:16:27;;;;;;;20.17;7.88;;;;;;;;;;2099256;28;20489;-48
2021/12/22 03:17:28;;;;;;;19.60;7.73;;;;;;;;;;2098426;28;20054;-48
2021/12/22 03:18:31;;;;;;;21.42;7.68;;;;;;;;;;2102247;28;20567;-48
2021/12/22 03:19:34;;;;;;;17.55;8.02;;;;;;;;;;2106353;28;20078;-48
2021/12/22 03:20:36;;;;;;;22.40;9.48;;;;;;;;;;2106736;28;20359;-49
2021/12/22 03:21:38;;;;;;;22.63;9.35;;;;;;;;;;2105790;28;20682;-48
2021/12/22 03:22:41;;;;;;;21.75;8.38;;;;;;;;;;2115180;28;20359;-48
2021/12/22 03:23:42;;;;;;;21.98;9.02;;;;;;;;;;2114121;28;20043;-48
2021/12/22 03:24:46;;;;;;;20.70;7.68;;;;;;;;;;2104700;28;20774;-48
2021/12/22 03:25:47;;;;;;;21.90;8.63;;;;;;;;;;2106483;28;20511;-49
2021/12/22 03:26:48;;;;;;;12.20;5.97;;;;;;;;;;2105852;28;20281;-48
2021/12/22 03:27:50;;;;;;;24.75;7.55;;;;;;;;;;2105042;28;20139;-48
2021/12/22 03:28:51;;;;;;;23.08;8.77;;;;;;;;;;2106647;28;20048;-49
2021/12/22 03:29:53;;;;;;;22.08;6.82;;;;;;;;;;2105091;28;20280;-49
2021/12/22 03:30:55;;;;;;;19.25;8.23;;;;;;;;;;2109771;28;20036;-48
2021/12/22 03:31:57;;;;;;;22.23;8.52;;;;;;;;;;2110461;28;20558;-49
2021/12/22 03:32:58;;;;;;;21.83;8.05;;;;;;;;;;2099576;28;20627;-48
2021/12/22 03:33:59;;;;;;;17.33;6.82;;;;;;;;;;2111891;28;20044;-49
2021/12/22 03:35:00;;;;;;;21.27;7.97;;;;;;;;;;2114932;28;20127;-48
2021/12/22 03:36:01;;;;;;;15.80;7.43;;;;;;;;;;2109579;28;20067;-48
2021/12/22 03:37:03;;;;;;;18.17;7.10;;;;;;;;;;2104994;28;20138;-49
2021/12/22 03:38:04;;;;;;;;;;;;;;;;;;2107036;28;20123;-49
2021/12/22 03:39:06;;;;;;;19.75;6.30;;;;;;;;;;2104245;28;19978;-48
2021/12/22 03:40:07;;;;;;;17.92;6.63;;;;;;;;;;2099894;28;20053;-48
2021/12/22 03:41:08;;;;;;;16.27;6.85;;;;;;;;;;2098096;28;20148;-48
2021/12/22 03:42:12;;;;;;;20.77;7.47;;;;;;;;;;2105019;28;20075;-48
2021/12/22 03:43:13;;;;;;;22.73;8.55;;;;;;;;;;2106446;28;20055;-48
2021/12/22 03:44:14;;;;;;;19.55;6.93;;;;;;;;;;2106448;28;20647;-49
2021/12/22 03:45:16;;;;;;;18.92;8.02;;;;;;;;;;2104121;28;20104;-48
2021/12/22 03:46:17;;;;;;;25.77;7.80;;;;;;;;;;2106270;28;20127;-48
2021/12/22 03:47:20;;;;;;;22.67;8.05;;;;;;;;;;2106707;28;20052;-49
2021/12/22 03:48:22;;;;;;;18.92;6.97;;;;;;;;;;2106200;28;20556;-48
2021/12/22 03:49:23;;;;;;;20.50;7.25;;;;;;;;;;2098045;28;20289;-48
2021/12/22 03:50:24;;;;;;;19.00;6.68;;;;;;;;;;2097786;28;20849;-48
2021/12/22 03:51:25;;;;;;;19.38;6.88;;;;;;;;;;2104432;28;20131;-48
2021/12/22 03:52:27;;;;;;;12.80;6.15;;;;;;;;;;2106601;28;20067;-48
2021/12/22 03:53:35;;;;;;;13.50;7.15;;;;;;;;;;2105244;28;20055;-49
2021/12/22 03:54:36;;;;;;;18.30;6.80;;;;;;;;;;2105391;28;20367;-48
2021/12/22 03:55:37;;;;;;;19.05;7.60;;;;;;;;;;2106392;28;20485;-48
2021/12/22 03:56:38;;;;;;;17.27;7.33;;;;;;;;;;2104348;28;20706;-49
2021/12/22 03:57:39;;;;;;;18.98;7.50;;;;;;;;;;2111423;28;20400;-48
2021/12/22 03:58:40;;;;;;;14.73;6.17;;;;;;;;;;2114944;28;20062;-48
2021/12/22 03:59:41;;;;;;;16.85;6.70;;;;;;;;;;2109222;28;20115;-48
2021/12/22 04:00:43;;;;;;;15.43;6.07;;;;;;;;;;2099909;28;20515;-48
2021/12/22 04:01:45;;;;;;;18.27;6.75;;;;;;;;;;2097974;28;20076;-48
2021/12/22 04:02:46;;;;;;;15.63;7.07;;;;;;;;;;2102148;28;20489;-48
2021/12/22 04:03:51;;;;;;;15.82;6.60;;;;;;;;;;2101215;28;20330;-48
2021/12/22 04:04:52;;;;;;;11.80;5.55;;;;;;;;;;2098039;28;20128;-48
2021/12/22 04:05:53;;;;;;;19.45;7.38;;;;;;;;;;2104391;28;20807;-48
2021/12/22 04:06:54;;;;;;;19.25;7.43;;;;;;;;;;2098989;28;20052;-48
2021/12/22 04:07:56;;;;;;;14.50;6.27;;;;;;;;;;2098081;28;20493;-48
2021/12/22 04:08:57;;;;;;;14.77;7.45;;;;;;;;;;2102713;28;20126;-48
2021/12/22 04:09:58;;;;;;;16.50;7.30;;;;;;;;;;2114778;28;20282;-49
2021/12/22 04:10:59;;;;;;;17.88;6.57;;;;;;;;;;2114690;28;20052;-49
2021/12/22 04:12:00;;;;;;;17.73;6.47;;;;;;;;;;2106278;28;20060;-50
2021/12/22 04:13:01;;;;;;;18.75;6.15;;;;;;;;;;2114588;28;20538;-49
2021/12/22 04:14:02;;;;;;;14.23;7.03;;;;;;;;;;2114836;28;20096;-49
2021/12/22 04:15:04;;;;;;;16.02;6.65;;;;;;;;;;2106207;28;20215;-48
2021/12/22 04:16:06;;;;;;;18.33;7.18;;;;;;;;;;2097861;28;20281;-48
2021/12/22 04:17:07;;;;;;;16.80;6.93;;;;;;;;;;2097732;28;20044;-49
2021/12/22 04:18:08;;;;;;;18.73;6.80;;;;;;;;;;2104282;28;20044;-48
2021/12/22 04:19:09;;;;;;;19.35;7.55;;;;;;;;;;2106236;28;20541;-48
2021/12/22 04:20:11;;;;;;;21.47;7.20;;;;;;;;;;2105692;28;20052;-48
2021/12/22 04:21:12;;;;;;;17.17;7.30;;;;;;;;;;2105405;28;20722;-49
2021/12/22 04:22:13;;;;;;;17.70;7.20;;;;;;;;;;2105886;28;20048;-49
2021/12/22 04:23:16;;;;;;;13.50;6.95;;;;;;;;;;2104178;28;20123;-48
2021/12/22 04:24:18;;;;;;;18.45;8.25;;;;;;;;;;2104925;28;20372;-48
2021/12/22 04:25:20;;;;;;;17.70;7.80;;;;;;;;;;2097754;28;20164;-48
2021/12/22 04:26:23;;;;;;;15.60;7.43;;;;;;;;;;2099698;28;20127;-48
2021/12/22 04:27:24;;;;;;;15.13;6.90;;;;;;;;;;2104787;28;20284;-45
2021/12/22 04:28:25;;;;;;;15.90;7.05;;;;;;;;;;2106121;28;20415;-49
2021/12/22 04:29:26;;;;;;;16.65;6.70;;;;;;;;;;2105182;28;21212;-49
2021/12/22 04:30:27;;;;;;;15.90;6.50;;;;;;;;;;2104708;28;20055;-48
2021/12/22 04:31:28;;;;;;;14.52;6.50;;;;;;;;;;2106049;28;20040;-48
2021/12/22 04:32:29;;;;;;;17.52;7.43;;;;;;;;;;2102152;28;20127;-49
2021/12/22 04:33:30;;;;;;;17.23;7.38;;;;;;;;;;2113432;28;20047;-48
2021/12/22 04:34:31;;;;;;;19.10;6.87;;;;;;;;;;2114592;28;20044;-48
2021/12/22 04:35:32;;;;;;;17.27;6.25;;;;;;;;;;2109554;28;20131;-48
2021/12/22 04:36:34;;;;;;;16.42;6.53;;;;;;;;;;2098816;28;20226;-49
2021/12/22 04:37:34;;;;;;;16.77;6.93;;;;;;;;;;2097703;28;20136;-49
2021/12/22 04:38:36;;;;;;;13.63;6.67;;;;;;;;;;2101796;28;20054;-48
2021/12/22 04:39:37;;;;;;;13.20;5.65;;;;;;;;;;2106041;28;20047;-48
2021/12/22 04:40:38;;;;;;;16.23;6.83;;;;;;;;;;2106228;28;20542;-48
2021/12/22 04:41:39;;;;;;;15.48;6.57;;;;;;;;;;2103672;28;20040;-49
2021/12/22 04:42:40;;;;;;;13.83;6.17;;;;;;;;;;2106087;28;20043;-48
2021/12/22 04:43:41;;;;;;;16.23;6.53;;;;;;;;;;2106043;28;20450;-50
2021/12/22 04:44:42;;;;;;;14.43;6.85;;;;;;;;;;2106024;28;20389;-48
2021/12/22 04:45:44;;;;;;;15.98;5.97;;;;;;;;;;2097741;28;20052;-48
2021/12/22 04:46:45;;;;;;;11.98;6.10;;;;;;;;;;2097322;28;20055;-49
2021/12/22 04:47:47;;;;;;;15.40;6.73;;;;;;;;;;2104235;28;20045;-50
2021/12/22 04:48:48;;;;;;;;;;;;;;;;;;2106462;28;20280;-46
2021/12/22 04:49:49;;;;;;;7.10;3.83;;;;;;;;;;2105719;28;19926;-48
2021/12/22 04:50:50;;;;;;;12.10;5.90;;;;;;;;;;2107406;28;20133;-48
2021/12/22 04:51:54;;;;;;;9.57;5.32;;;;;;;;;;2105955;28;20123;-49
2021/12/22 04:52:59;;;;;;;14.05;6.18;;;;;;;;;;2104797;28;20047;-51
2021/12/22 04:54:05;;;;;;;13.70;6.47;;;;;;;;;;2108745;28;20417;-49
2021/12/22 04:55:07;;;;;;;16.02;6.55;;;;;;;;;;2114530;28;20271;-52
2021/12/22 04:56:08;;;;;;;14.55;5.82;;;;;;;;;;2108923;28;20371;-48
2021/12/22 04:57:09;;;;;;;15.60;7.53;;;;;;;;;;2104747;28;20108;-48
2021/12/22 04:58:10;;;;;;;15.43;6.53;;;;;;;;;;2106015;28;20048;-48
2021/12/22 04:59:11;;;;;;;13.18;6.28;;;;;;;;;;2103865;28;20131;-48
2021/12/22 05:00:13;;;;;;;13.07;5.43;;;;;;;;;;2099353;28;20049;-48
2021/12/22 05:01:14;;;;;;;;;;;;;;;;;;2098087;28;20074;-50
2021/12/22 05:02:15;;;;;;;10.73;5.22;;;;;;;;;;2101369;28;19923;-48
2021/12/22 05:03:16;;;;;;;9.32;5.05;;;;;;;;;;2104894;28;20072;-48
2021/12/22 05:04:18;;;;;;;18.60;6.43;;;;;;;;;;2106009;28;20403;-47
2021/12/22 05:05:18;;;;;;;13.05;6.18;;;;;;;;;;2106724;28;20051;-46
2021/12/22 05:06:19;;;;;;;14.53;6.67;;;;;;;;;;2097957;28;20481;-49
2021/12/22 05:07:20;;;;;;;14.68;6.35;;;;;;;;;;2097529;28;20178;-46
2021/12/22 05:08:21;;;;;;;21.33;7.27;;;;;;;;;;2105568;28;20051;-50
2021/12/22 05:09:23;;;;;;;15.90;6.70;;;;;;;;;;2097581;28;20056;-49
2021/12/22 05:10:25;;;;;;;13.25;6.15;;;;;;;;;;2097652;28;20054;-50
2021/12/22 05:11:26;;;;;;;13.95;6.25;;;;;;;;;;2105316;28;20736;-47
2021/12/22 05:12:27;;;;;;;12.70;6.57;;;;;;;;;;2097581;28;20045;-47
2021/12/22 05:13:29;;;;;;;12.07;5.78;;;;;;;;;;2097193;28;20048;-48
2021/12/22 05:14:30;;;;;;;12.05;5.85;;;;;;;;;;2104045;28;20051;-49
2021/12/22 05:15:37;;;;;;;15.75;6.75;;;;;;;;;;2105800;28;20645;-47
2021/12/22 05:16:45;;;;;;;13.65;6.28;;;;;;;;;;2104750;28;20050;-48
2021/12/22 05:18:13;;;;;;;14.07;6.38;;;;;;;;;;2109449;28;20819;-47
2021/12/22 05:19:15;;;;;;;13.57;5.85;;;;;;;;;;2114384;28;20360;-48
2021/12/22 05:20:16;;;;;;;12.40;5.72;;;;;;;;;;2107094;28;20363;-46
2021/12/22 05:21:18;;;;;;;17.98;5.82;;;;;;;;;;2097574;28;20123;-47
2021/12/22 05:22:19;;;;;;;16.65;5.90;;;;;;;;;;2097502;28;20627;-46
2021/12/22 05:23:20;;;;;;;13.57;6.30;;;;;;;;;;2103328;28;20120;-46
2021/12/22 05:24:21;;;;;;;16.45;5.80;;;;;;;;;;2105822;28;20487;-47
2021/12/22 05:25:23;;;;;;;13.27;5.97;;;;;;;;;;2105324;28;20149;-47
2021/12/22 05:26:25;;;;;;;16.60;6.18;;;;;;;;;;2102962;28;20184;-47
2021/12/22 05:27:26;;;;;;;13.35;5.63;;;;;;;;;;2097495;28;20051;-47
2021/12/22 05:28:27;;;;;;;16.75;7.05;;;;;;;;;;2099998;28;20283;-47
2021/12/22 05:29:28;;;;;;;12.98;6.10;;;;;;;;;;2104276;28;20516;-47
2021/12/22 05:30:29;;;;;;;15.63;6.25;;;;;;;;;;2105757;28;20079;-47
2021/12/22 05:31:30;;;;;;;23.35;7.50;;;;;;;;;;2104249;28;20564;-47
2021/12/22 05:32:32;;;;;;;18.90;7.27;;;;;;;;;;2108508;28;20043;-47
2021/12/22 05:33:33;;;;;;;16.55;6.18;;;;;;;;;;2114212;28;20511;-48
2021/12/22 05:34:34;;;;;;;17.05;6.68;;;;;;;;;;2109360;28;20276;-47
2021/12/22 05:35:35;;;;;;;16.08;7.18;;;;;;;;;;2107995;28;20097;-47
2021/12/22 05:36:36;;;;;;;13.80;6.50;;;;;;;;;;2105717;28;20101;-47
2021/12/22 05:37:37;;;;;;;16.00;6.80;;;;;;;;;;2104483;28;20068;-47
2021/12/22 05:38:39;;;;;;;18.80;7.60;;;;;;;;;;2105410;28;20131;-47
2021/12/22 05:39:39;;;;;;;16.10;6.30;;;;;;;;;;2105880;28;20056;-47
2021/12/22 05:40:41;;;;;;;14.97;5.83;;;;;;;;;;2105543;28;20951;-48
2021/12/22 05:41:42;;;;;;;;;;;;;;;;;;2100926;28;20036;-47
2021/12/22 05:42:43;;;;;;;16.67;5.78;;;;;;;;;;2097390;28;19921;-48
2021/12/22 05:43:44;;;;;;;13.90;5.35;;;;;;;;;;2103213;28;20127;-47
2021/12/22 05:44:45;;;;;;;15.57;6.18;;;;;;;;;;2106053;28;20044;-47
2021/12/22 05:45:46;;;;;;;13.15;6.25;;;;;;;;;;2105642;28;20096;-48
2021/12/22 05:46:47;;;;;;;15.23;6.68;;;;;;;;;;2103423;28;20043;-47
2021/12/22 05:47:48;;;;;;;15.15;6.68;;;;;;;;;;2105589;28;20044;-48
2021/12/22 05:48:50;;;;;;;15.63;7.10;;;;;;;;;;2105717;28;20481;-48
2021/12/22 05:49:51;;;;;;;14.55;7.10;;;;;;;;;;2103055;28;20142;-48
2021/12/22 05:50:57;;;;;;;13.27;6.22;;;;;;;;;;2114232;28;20052;-47
2021/12/22 05:51:58;;;;;;;15.32;7.13;;;;;;;;;;2114099;28;20044;-47
2021/12/22 05:52:59;;;;;;;10.10;5.47;;;;;;;;;;2103455;28;20787;-47
2021/12/22 05:54:00;;;;;;;17.10;7.40;;;;;;;;;;2105608;28;20055;-47
2021/12/22 05:55:01;;;;;;;14.88;6.88;;;;;;;;;;2105184;28;20171;-47
2021/12/22 05:56:03;;;;;;;14.38;6.53;;;;;;;;;;2103687;28;20087;-47
2021/12/22 05:57:04;;;;;;;17.90;7.72;;;;;;;;;;2105578;28;20040;-47
2021/12/22 05:58:05;;;;;;;15.13;6.90;;;;;;;;;;2105214;28;20364;-48
2021/12/22 05:59:07;;;;;;;14.10;6.65;;;;;;;;;;2101085;28;20087;-47
2021/12/22 06:00:08;;;;;;;13.30;6.95;;;;;;;;;;2097434;28;20131;-47
2021/12/22 06:01:09;;;;;;;15.70;6.75;;;;;;;;;;2098177;28;20132;-44
2021/12/22 06:02:11;;;;;;;16.17;6.88;;;;;;;;;;2104599;28;20048;-44
2021/12/22 06:03:12;;;;;;;12.45;5.97;;;;;;;;;;2105647;28;20539;-43
2021/12/22 06:04:13;;;;;;;11.48;6.22;;;;;;;;;;2103990;28;20139;-43
2021/12/22 06:05:14;;;;;;;10.63;5.73;;;;;;;;;;2103574;28;20091;-43
2021/12/22 06:06:15;;;;;;;13.60;6.57;;;;;;;;;;2097194;28;20156;-43
2021/12/22 06:07:16;;;;;;;15.17;6.97;;;;;;;;;;2099855;28;20044;-43
2021/12/22 06:08:17;;;;;;;16.27;7.00;;;;;;;;;;2111438;28;20044;-43
2021/12/22 06:09:18;;;;;;;14.70;6.75;;;;;;;;;;2114166;28;20135;-43
2021/12/22 06:10:19;;;;;;;16.58;7.10;;;;;;;;;;2108660;28;20503;-44
2021/12/22 06:11:21;;;;;;;15.23;7.03;;;;;;;;;;2104227;28;20055;-43
2021/12/22 06:12:22;;;;;;;15.40;6.00;;;;;;;;;;2105664;28;20097;-43
2021/12/22 06:13:23;;;;;;;18.55;7.15;;;;;;;;;;2104087;28;20132;-43